createdAt,value
2024-01-25T00:04:08.974Z,8.00
2024-01-25T00:10:02.640Z,7.90
2024-01-25T00:15:55.802Z,7.90
2024-01-25T00:21:50.516Z,7.90
2024-01-25T00:27:46.265Z,7.80
2024-01-25T00:33:39.796Z,7.80
2024-01-25T00:39:35.142Z,7.80
2024-01-25T00:45:28.981Z,7.70
2024-01-25T00:51:24.674Z,7.70
2024-01-25T00:57:20.175Z,7.70
2024-01-25T01:03:14.398Z,7.70
2024-01-25T01:09:07.687Z,7.70
2024-01-25T01:15:02.405Z,7.70
2024-01-25T01:20:55.783Z,7.70
2024-01-25T01:26:50.154Z,7.80
2024-01-25T01:32:45.271Z,7.70
2024-01-25T01:38:38.679Z,7.70
2024-01-25T01:44:32.000Z,7.70
2024-01-25T01:50:27.965Z,7.70
2024-01-25T01:56:21.903Z,7.70
2024-01-25T02:02:15.448Z,7.60
2024-01-25T02:08:11.374Z,7.70
2024-01-25T02:14:04.855Z,7.70
2024-01-25T02:19:58.558Z,7.80
2024-01-25T02:25:53.705Z,7.70
2024-01-25T02:31:47.287Z,7.70
2024-01-25T02:37:41.664Z,7.70
2024-01-25T02:43:36.296Z,7.70
2024-01-25T02:49:29.777Z,7.70
2024-01-25T02:55:23.576Z,7.70
2024-01-25T03:01:18.354Z,7.70
2024-01-25T03:07:11.978Z,7.70
2024-01-25T03:13:05.591Z,7.70
2024-01-25T03:19:00.207Z,7.70
2024-01-25T03:24:53.593Z,7.70
2024-01-25T03:30:46.862Z,7.70
2024-01-25T03:36:42.409Z,7.70
2024-01-25T03:42:35.799Z,7.70
2024-01-25T03:48:29.147Z,7.70
2024-01-25T03:54:23.872Z,7.70
2024-01-25T04:00:17.936Z,7.70
2024-01-25T04:06:11.283Z,7.70
2024-01-25T04:12:06.821Z,7.70
2024-01-25T04:18:00.368Z,7.70
2024-01-25T04:23:53.931Z,7.70
2024-01-25T04:29:49.085Z,7.70
2024-01-25T04:35:42.165Z,7.70
2024-01-25T04:41:35.473Z,7.70
2024-01-25T04:47:30.283Z,7.70
2024-01-25T04:53:23.823Z,7.60
2024-01-25T04:59:17.259Z,7.60
2024-01-25T05:05:12.117Z,7.60
2024-01-25T05:11:06.575Z,7.60
2024-01-25T05:17:01.143Z,7.60
2024-01-25T05:22:55.837Z,7.50
2024-01-25T05:28:49.231Z,7.60
2024-01-25T05:34:42.845Z,7.60
2024-01-25T05:40:37.541Z,7.60
2024-01-25T05:46:30.906Z,7.60
2024-01-25T05:52:25.185Z,7.60
2024-01-25T05:58:20.181Z,7.50
2024-01-25T06:04:13.374Z,7.50
2024-01-25T06:10:07.262Z,7.50
2024-01-25T06:16:01.981Z,7.50
2024-01-25T06:21:55.110Z,7.50
2024-01-25T06:27:48.660Z,7.60
2024-01-25T06:33:43.234Z,7.50
2024-01-25T06:39:36.720Z,7.50
2024-01-25T06:45:30.032Z,7.50
2024-01-25T06:51:24.698Z,7.50
2024-01-25T06:57:18.223Z,7.50
2024-01-25T07:03:11.587Z,7.50
2024-01-25T07:09:07.059Z,7.50
2024-01-25T07:15:00.551Z,7.50
2024-01-25T07:20:53.937Z,7.50
2024-01-25T07:26:48.286Z,7.50
2024-01-25T07:32:43.272Z,7.50
2024-01-25T07:38:36.638Z,7.40
2024-01-25T07:44:31.414Z,7.30
2024-01-25T07:50:24.899Z,7.30
2024-01-25T07:56:17.977Z,7.30
2024-01-25T08:02:12.726Z,7.40
2024-01-25T08:08:06.549Z,7.40
2024-01-25T08:13:59.964Z,7.40
2024-01-25T08:19:54.700Z,7.40
2024-01-25T08:25:48.070Z,7.40
2024-01-25T08:31:41.436Z,7.40
2024-01-25T08:37:37.656Z,7.40
2024-01-25T08:43:31.202Z,7.40
2024-01-25T08:49:24.700Z,7.40
2024-01-25T08:55:20.574Z,7.40
2024-01-25T09:01:13.979Z,7.40
2024-01-25T09:07:07.472Z,7.50
2024-01-25T09:13:02.345Z,7.50
2024-01-25T09:18:55.947Z,7.60
2024-01-25T09:24:49.600Z,7.60
2024-01-25T09:30:44.389Z,7.60
2024-01-25T09:36:37.513Z,7.60
2024-01-25T09:42:30.928Z,7.70
2024-01-25T09:48:26.260Z,7.60
2024-01-25T09:54:20.139Z,7.70
2024-01-25T10:00:15.259Z,7.60
2024-01-25T10:06:10.404Z,7.70
2024-01-25T10:12:10.770Z,7.70
2024-01-25T10:18:24.398Z,7.70
2024-01-25T10:24:25.184Z,7.70
2024-01-25T10:30:19.096Z,7.70
2024-01-25T10:36:14.441Z,7.70
2024-01-25T10:42:09.601Z,7.70
2024-01-25T10:48:03.432Z,7.80
2024-01-25T10:53:57.206Z,7.70
2024-01-25T10:59:52.483Z,7.80
2024-01-25T11:05:46.398Z,7.70
2024-01-25T11:11:39.794Z,7.80
2024-01-25T11:17:35.256Z,7.90
2024-01-25T11:23:34.537Z,7.80
2024-01-25T11:29:28.609Z,7.80
2024-01-25T11:35:26.214Z,7.80
2024-01-25T11:41:20.782Z,7.80
2024-01-25T11:47:14.189Z,7.90
2024-01-25T11:53:09.865Z,7.80
2024-01-25T11:59:04.665Z,7.90
2024-01-25T12:04:59.657Z,8.00
2024-01-25T12:11:05.297Z,8.00
2024-01-25T12:16:58.815Z,8.00
2024-01-25T12:22:52.634Z,8.00
2024-01-25T12:28:49.634Z,8.00
2024-01-25T12:34:45.560Z,8.00
2024-01-25T12:40:39.545Z,8.00
2024-01-25T12:46:34.336Z,7.90
2024-01-25T12:52:27.688Z,7.80
2024-01-25T12:58:21.163Z,7.80
2024-01-25T13:04:16.067Z,7.80
2024-01-25T13:10:12.614Z,7.80
2024-01-25T13:16:06.820Z,7.80
2024-01-25T13:22:01.329Z,7.90
2024-01-25T13:27:54.955Z,7.90
2024-01-25T13:33:48.921Z,7.90
2024-01-25T13:39:44.020Z,7.80
2024-01-25T13:45:37.392Z,7.90
2024-01-25T13:51:30.782Z,7.90
2024-01-25T13:57:25.680Z,7.90
2024-01-25T14:03:19.319Z,7.90
2024-01-25T14:09:13.117Z,8.00
2024-01-25T14:15:09.108Z,8.00
2024-01-25T14:21:02.611Z,8.00
2024-01-25T14:26:56.060Z,8.10
2024-01-25T14:32:50.933Z,8.20
2024-01-25T14:38:45.872Z,8.30
2024-01-25T14:44:39.316Z,8.30
2024-01-25T14:50:34.051Z,8.40
2024-01-25T14:56:27.326Z,8.40
2024-01-25T15:02:20.618Z,8.30
2024-01-25T15:08:15.055Z,8.40
2024-01-25T15:14:08.345Z,8.30
2024-01-25T15:20:01.981Z,8.30
2024-01-25T15:25:56.879Z,8.20
2024-01-25T15:31:50.370Z,8.20
2024-01-25T15:37:43.876Z,8.20
2024-01-25T15:43:38.502Z,8.20
2024-01-25T15:49:31.848Z,8.20
2024-01-25T15:55:25.673Z,8.10
2024-01-25T16:01:20.722Z,8.00
2024-01-25T16:07:14.238Z,8.00
2024-01-25T16:13:07.291Z,8.00
2024-01-25T16:19:05.385Z,7.90
2024-01-25T16:24:59.099Z,7.80
2024-01-25T16:30:52.198Z,7.90
2024-01-25T16:36:47.054Z,7.90
2024-01-25T16:42:40.419Z,7.90
2024-01-25T16:48:34.251Z,7.90
2024-01-25T16:54:29.124Z,7.90
2024-01-25T17:00:26.020Z,7.90
2024-01-25T17:06:19.818Z,7.90
2024-01-25T17:12:16.525Z,8.00
2024-01-25T17:18:09.651Z,8.00
2024-01-25T17:24:03.671Z,7.90
2024-01-25T17:29:58.215Z,7.80
2024-01-25T17:35:51.652Z,7.70
2024-01-25T17:41:45.111Z,7.70
2024-01-25T17:47:39.789Z,7.70
2024-01-25T17:53:33.131Z,7.70
2024-01-25T17:59:27.427Z,7.70
2024-01-25T18:05:22.132Z,7.70
2024-01-25T18:11:17.066Z,7.70
2024-01-25T18:17:13.023Z,7.70
2024-01-25T18:23:07.394Z,7.60
2024-01-25T18:29:00.690Z,7.60
2024-01-25T18:34:54.720Z,7.50
2024-01-25T18:40:49.373Z,7.50
2024-01-25T18:46:42.711Z,7.50
2024-01-25T18:52:36.532Z,7.50
2024-01-25T18:58:31.714Z,7.40
2024-01-25T19:04:25.654Z,7.30
2024-01-25T19:10:19.130Z,7.20
2024-01-25T19:16:13.875Z,7.20
2024-01-25T19:22:08.499Z,7.10
2024-01-25T19:28:02.038Z,7.20
2024-01-25T19:33:56.785Z,7.20
2024-01-25T19:39:49.837Z,7.10
2024-01-25T19:45:43.528Z,7.10
2024-01-25T19:51:37.994Z,6.70
2024-01-25T19:57:31.895Z,6.70
2024-01-25T20:03:26.561Z,6.70
2024-01-25T20:09:21.312Z,6.80
2024-01-25T20:15:20.001Z,6.80
2024-01-25T20:21:14.946Z,6.60
2024-01-25T20:27:10.525Z,6.60
2024-01-25T20:33:05.227Z,6.50
2024-01-25T20:38:58.567Z,6.60
2024-01-25T20:44:53.152Z,6.60
2024-01-25T20:50:46.395Z,6.60
2024-01-25T20:56:40.446Z,6.50
2024-01-25T21:02:35.458Z,6.50
2024-01-25T21:08:29.173Z,6.40
2024-01-25T21:14:23.974Z,6.40
2024-01-25T21:20:18.931Z,6.50
2024-01-25T21:26:12.198Z,6.30
2024-01-25T21:32:06.096Z,6.30
2024-01-25T21:38:00.645Z,6.50
2024-01-25T21:43:54.565Z,6.40
2024-01-25T21:49:48.282Z,6.40
2024-01-25T21:55:43.156Z,6.20
2024-01-25T22:01:38.511Z,6.30
2024-01-25T22:07:32.089Z,6.20
2024-01-25T22:13:28.478Z,6.40
2024-01-25T22:19:23.443Z,6.30
2024-01-25T22:25:16.851Z,6.30
2024-01-25T22:31:11.729Z,6.30
2024-01-25T22:37:06.724Z,6.30
2024-01-25T22:43:00.141Z,6.30
2024-01-25T22:48:54.837Z,6.40
2024-01-25T22:54:48.295Z,6.40
2024-01-25T23:00:42.196Z,6.60
2024-01-25T23:06:37.100Z,6.60
2024-01-25T23:12:30.425Z,6.40
2024-01-25T23:18:23.716Z,6.20
2024-01-25T23:24:18.582Z,6.50
2024-01-25T23:30:12.447Z,6.60
2024-01-25T23:36:06.560Z,6.60
2024-01-25T23:42:01.161Z,6.50
2024-01-25T23:47:54.601Z,6.50
2024-01-25T23:53:48.043Z,6.70
2024-01-25T23:59:42.810Z,6.60
